createdAt,value
2023-04-22T00:00:17.423Z,11.62
2023-04-22T00:02:44.650Z,11.51
2023-04-22T00:05:15.644Z,11.46
2023-04-22T00:07:44.301Z,11.45
2023-04-22T00:10:11.908Z,11.39
2023-04-22T00:12:39.038Z,11.51
2023-04-22T00:15:06.866Z,11.54
2023-04-22T00:17:34.231Z,11.41
2023-04-22T00:20:01.947Z,11.28
2023-04-22T00:22:29.012Z,11.34
2023-04-22T00:24:56.223Z,11.23
2023-04-22T00:27:23.230Z,11.13
2023-04-22T00:29:50.295Z,11.10
2023-04-22T00:32:17.288Z,11.16
2023-04-22T00:34:44.274Z,11.12
2023-04-22T00:37:11.424Z,11.06
2023-04-22T00:39:39.957Z,11.09
2023-04-22T00:42:07.996Z,11.01
2023-04-22T00:44:36.573Z,10.92
2023-04-22T00:47:04.486Z,10.92
2023-04-22T00:49:32.441Z,11.12
2023-04-22T00:51:59.433Z,11.13
2023-04-22T00:54:26.782Z,11.14
2023-04-22T00:56:53.764Z,11.02
2023-04-22T00:59:22.529Z,10.80
2023-04-22T01:01:49.989Z,10.86
2023-04-22T01:04:17.962Z,10.70
2023-04-22T01:06:45.448Z,10.74
2023-04-22T01:09:13.316Z,10.70
2023-04-22T01:11:41.030Z,10.77
2023-04-22T01:14:08.118Z,10.70
2023-04-22T01:16:35.981Z,10.56
2023-04-22T01:19:03.111Z,10.52
2023-04-22T01:21:33.598Z,10.60
2023-04-22T01:24:02.118Z,10.46
2023-04-22T01:26:29.578Z,10.57
2023-04-22T01:28:56.762Z,10.38
2023-04-22T01:31:24.174Z,10.36
2023-04-22T01:33:51.708Z,10.31
2023-04-22T01:36:18.889Z,10.21
2023-04-22T01:38:46.024Z,10.21
2023-04-22T01:41:14.743Z,10.20
2023-04-22T01:43:43.221Z,10.07
2023-04-22T01:46:10.428Z,10.12
2023-04-22T01:48:38.299Z,10.04
2023-04-22T01:51:05.706Z,9.92
2023-04-22T01:53:32.744Z,9.81
2023-04-22T01:56:00.477Z,9.77
2023-04-22T01:58:29.860Z,9.73
2023-04-22T02:00:57.189Z,9.77
2023-04-22T02:03:24.363Z,9.89
2023-04-22T02:05:51.572Z,9.76
2023-04-22T02:08:18.606Z,9.83
2023-04-22T02:10:45.668Z,9.79
2023-04-22T02:13:12.680Z,9.72
2023-04-22T02:19:49.164Z,9.55
2023-04-22T02:22:17.255Z,9.49
2023-04-22T02:24:44.306Z,9.57
2023-04-22T02:27:11.307Z,9.64
2023-04-22T02:29:38.876Z,9.63
2023-04-22T02:32:06.354Z,9.52
2023-04-22T02:34:33.370Z,9.50
2023-04-22T02:37:00.433Z,9.47
2023-04-22T02:39:27.417Z,9.41
2023-04-22T02:41:54.787Z,9.50
2023-04-22T02:44:21.790Z,9.55
2023-04-22T02:46:49.287Z,9.61
2023-04-22T02:49:16.358Z,9.50
2023-04-22T02:51:43.375Z,9.47
2023-04-22T02:54:10.397Z,9.49
2023-04-22T02:56:37.405Z,9.66
2023-04-22T02:59:04.637Z,9.44
2023-04-22T03:01:32.368Z,9.40
2023-04-22T03:03:59.825Z,9.36
2023-04-22T03:06:27.281Z,9.29
2023-04-22T03:08:54.289Z,9.45
2023-04-22T03:11:21.442Z,9.36
2023-04-22T03:13:48.511Z,9.22
2023-04-22T03:16:17.702Z,9.39
2023-04-22T03:18:44.799Z,9.31
2023-04-22T03:21:11.774Z,9.35
2023-04-22T03:23:38.888Z,9.23
2023-04-22T03:26:06.260Z,9.34
2023-04-22T03:28:33.665Z,9.19
2023-04-22T03:31:00.687Z,9.48
2023-04-22T03:33:27.696Z,9.24
2023-04-22T03:35:55.259Z,9.19
2023-04-22T03:38:22.312Z,9.46
2023-04-22T03:40:51.001Z,9.43
2023-04-22T03:43:18.630Z,9.36
2023-04-22T03:45:47.225Z,9.37
2023-04-22T03:48:14.268Z,9.63
2023-04-22T03:50:41.310Z,9.58
2023-04-22T03:53:08.335Z,9.92
2023-04-22T03:55:35.375Z,10.74
2023-04-22T03:58:02.440Z,11.56
2023-04-22T04:00:29.496Z,12.39
2023-04-22T04:02:56.637Z,13.39
2023-04-22T04:05:23.801Z,14.47
2023-04-22T04:07:51.105Z,14.68
2023-04-22T04:10:18.177Z,15.57
2023-04-22T04:12:45.166Z,16.21
2023-04-22T04:15:12.265Z,17.31
2023-04-22T04:17:39.784Z,17.91
2023-04-22T04:20:07.541Z,18.47
2023-04-22T04:22:35.087Z,19.50
2023-04-22T04:25:02.620Z,19.99
2023-04-22T04:27:29.822Z,20.96
2023-04-22T04:29:56.965Z,21.09
2023-04-22T04:32:25.066Z,21.73
2023-04-22T04:34:52.726Z,21.63
2023-04-22T04:37:19.737Z,22.33
2023-04-22T04:39:46.746Z,22.95
2023-04-22T04:42:14.491Z,23.42
2023-04-22T04:44:41.558Z,24.03
2023-04-22T04:47:08.596Z,24.36
2023-04-22T04:49:39.976Z,25.37
2023-04-22T04:52:10.263Z,26.02
2023-04-22T04:54:37.664Z,26.64
2023-04-22T04:57:06.057Z,26.98
2023-04-22T04:59:33.070Z,27.63
2023-04-22T05:02:00.127Z,29.00
2023-04-22T05:04:27.615Z,29.75
2023-04-22T05:06:54.831Z,30.22
2023-04-22T05:09:21.830Z,31.05
2023-04-22T05:11:48.814Z,30.75
2023-04-22T05:14:15.799Z,31.06
2023-04-22T05:16:42.971Z,30.51
2023-04-22T05:19:10.057Z,30.43
2023-04-22T05:21:37.088Z,32.56
2023-04-22T05:24:04.360Z,32.34
2023-04-22T05:26:31.369Z,32.98
2023-04-22T05:28:58.373Z,32.66
2023-04-22T05:31:25.397Z,33.03
2023-04-22T05:33:52.429Z,32.96
2023-04-22T05:36:19.437Z,32.44
2023-04-22T05:38:46.478Z,33.83
2023-04-22T05:41:13.523Z,34.02
2023-04-22T05:43:40.570Z,34.13
2023-04-22T05:46:07.707Z,34.29
2023-04-22T05:48:34.781Z,34.20
2023-04-22T05:51:02.008Z,35.90
2023-04-22T05:53:29.005Z,35.65
2023-04-22T05:55:56.114Z,35.63
2023-04-22T05:58:23.262Z,36.17
2023-04-22T06:00:50.264Z,35.39
2023-04-22T06:03:17.423Z,36.87
2023-04-22T06:05:44.770Z,36.05
2023-04-22T06:08:11.847Z,36.18
2023-04-22T06:10:39.002Z,36.79
2023-04-22T06:13:06.275Z,36.50
2023-04-22T06:15:34.944Z,37.36
2023-04-22T06:18:02.289Z,37.21
2023-04-22T06:20:29.512Z,36.77
2023-04-22T06:22:56.539Z,36.37
2023-04-22T06:25:23.617Z,38.25
2023-04-22T06:27:51.021Z,37.51
2023-04-22T06:30:18.094Z,36.67
2023-04-22T06:32:45.246Z,38.25
2023-04-22T06:35:12.346Z,38.26
2023-04-22T06:37:39.356Z,38.26
2023-04-22T06:40:07.499Z,38.56
2023-04-22T06:42:34.707Z,39.20
2023-04-22T06:45:02.135Z,38.54
2023-04-22T06:47:29.275Z,38.96
2023-04-22T06:49:56.263Z,38.82
2023-04-22T06:52:24.261Z,39.33
2023-04-22T06:54:51.371Z,39.08
2023-04-22T06:57:18.370Z,39.80
2023-04-22T06:59:46.803Z,39.12
2023-04-22T07:02:14.426Z,37.65
2023-04-22T07:04:41.760Z,38.07
2023-04-22T07:07:09.238Z,37.49
2023-04-22T07:09:37.131Z,37.30
2023-04-22T07:12:04.728Z,38.03
2023-04-22T07:14:32.352Z,36.94
2023-04-22T07:17:00.241Z,37.45
2023-04-22T07:19:27.377Z,37.67
2023-04-22T07:21:54.634Z,37.98
2023-04-22T07:24:21.787Z,37.25
2023-04-22T07:26:48.996Z,35.66
2023-04-22T07:29:16.056Z,35.99
2023-04-22T07:31:44.078Z,34.58
2023-04-22T07:34:11.275Z,35.19
2023-04-22T07:36:38.537Z,34.64
2023-04-22T07:39:05.819Z,34.59
2023-04-22T07:41:32.863Z,35.23
2023-04-22T07:44:00.517Z,35.91
2023-04-22T07:46:27.736Z,36.56
2023-04-22T07:48:55.155Z,35.80
2023-04-22T07:51:22.219Z,33.96
2023-04-22T07:53:49.280Z,33.04
2023-04-22T07:56:16.325Z,34.76
2023-04-22T07:58:43.348Z,35.14
2023-04-22T08:01:10.476Z,35.04
2023-04-22T08:03:37.928Z,34.12
2023-04-22T08:06:05.147Z,33.76
2023-04-22T08:08:32.196Z,34.33
2023-04-22T08:10:59.175Z,33.59
2023-04-22T08:13:26.206Z,32.68
2023-04-22T08:15:53.326Z,31.56
2023-04-22T08:18:20.759Z,31.91
2023-04-22T08:20:48.116Z,31.95
2023-04-22T08:23:15.456Z,32.05
2023-04-22T08:25:42.851Z,31.81
2023-04-22T08:28:09.959Z,31.84
2023-04-22T08:30:36.981Z,32.75
2023-04-22T08:33:03.992Z,33.08
2023-04-22T08:35:31.343Z,33.44
2023-04-22T08:37:58.436Z,32.32
2023-04-22T08:40:27.772Z,30.54
2023-04-22T08:42:58.616Z,30.25
2023-04-22T08:45:25.864Z,30.02
2023-04-22T08:47:54.250Z,29.72
2023-04-22T08:50:25.568Z,29.32
2023-04-22T08:52:52.624Z,30.71
2023-04-22T08:55:19.880Z,30.79
2023-04-22T08:57:48.822Z,30.32
2023-04-22T09:00:16.733Z,30.71
2023-04-22T09:02:45.826Z,30.41
2023-04-22T09:05:14.996Z,29.65
2023-04-22T09:07:42.419Z,29.23
2023-04-22T09:10:11.890Z,28.86
2023-04-22T09:12:40.886Z,28.99
2023-04-22T09:15:09.806Z,29.37
2023-04-22T09:17:39.214Z,29.00
2023-04-22T09:20:08.889Z,28.16
2023-04-22T09:22:49.019Z,27.68
2023-04-22T09:25:25.631Z,26.98
2023-04-22T09:27:59.851Z,26.96
2023-04-22T09:30:33.589Z,26.55
2023-04-22T09:33:03.178Z,26.71
2023-04-22T09:35:37.155Z,26.72
2023-04-22T09:38:10.430Z,27.26
2023-04-22T09:40:42.332Z,27.42
2023-04-22T09:43:10.195Z,27.97
2023-04-22T09:45:41.504Z,28.29
2023-04-22T09:48:13.795Z,26.05
2023-04-22T09:50:49.964Z,25.58
2023-04-22T09:53:22.027Z,26.98
2023-04-22T09:55:53.327Z,27.67
2023-04-22T09:58:27.752Z,28.10
2023-04-22T10:00:58.136Z,27.98
2023-04-22T10:03:25.354Z,28.53
2023-04-22T10:05:52.489Z,28.80
2023-04-22T10:08:19.536Z,28.45
2023-04-22T10:10:46.830Z,26.61
2023-04-22T10:13:13.997Z,26.94
2023-04-22T10:15:47.934Z,25.92
2023-04-22T10:18:22.894Z,25.91
2023-04-22T10:20:51.286Z,26.58
2023-04-22T10:23:24.374Z,26.69
2023-04-22T10:25:55.395Z,26.74
2023-04-22T10:28:24.506Z,27.31
2023-04-22T10:30:51.942Z,26.64
2023-04-22T10:33:21.783Z,26.74
2023-04-22T10:36:09.633Z,26.60
2023-04-22T10:38:55.620Z,26.21
2023-04-22T10:41:31.374Z,26.18
2023-04-22T10:44:08.145Z,26.36
2023-04-22T10:46:37.144Z,26.88
2023-04-22T10:49:13.954Z,26.94
2023-04-22T10:51:48.324Z,27.38
2023-04-22T10:54:30.634Z,27.42
2023-04-22T10:57:22.841Z,27.76
2023-04-22T10:59:58.520Z,27.71
2023-04-22T11:02:26.126Z,27.09
2023-04-22T11:05:21.906Z,26.49
2023-04-22T11:07:53.232Z,26.43
2023-04-22T11:10:44.579Z,26.11
2023-04-22T11:13:21.495Z,25.65
2023-04-22T11:15:55.230Z,25.69
2023-04-22T11:18:25.966Z,25.52
2023-04-22T11:20:53.898Z,25.55
2023-04-22T11:23:27.193Z,25.54
2023-04-22T11:26:02.387Z,25.03
2023-04-22T11:28:29.680Z,24.95
2023-04-22T11:31:05.688Z,25.04
2023-04-22T11:33:34.810Z,25.07
2023-04-22T11:36:02.239Z,24.98
2023-04-22T11:38:29.231Z,24.67
2023-04-22T11:40:58.451Z,24.67
2023-04-22T11:43:25.550Z,24.97
2023-04-22T11:45:55.669Z,24.59
2023-04-22T11:48:22.871Z,24.26
2023-04-22T11:51:06.550Z,24.16
2023-04-22T11:53:33.512Z,24.26
2023-04-22T11:56:02.722Z,24.25
2023-04-22T11:58:29.746Z,24.52
2023-04-22T12:01:00.767Z,24.48
2023-04-22T12:03:30.559Z,24.33
2023-04-22T12:06:06.016Z,24.04
2023-04-22T12:08:44.392Z,23.94
2023-04-22T12:11:12.566Z,24.09
2023-04-22T12:13:42.113Z,23.83
2023-04-22T12:16:20.086Z,23.89
2023-04-22T12:18:55.558Z,23.34
2023-04-22T12:21:25.199Z,22.99
2023-04-22T12:24:00.648Z,23.62
2023-04-22T12:26:28.314Z,23.63
2023-04-22T12:28:58.233Z,23.26
2023-04-22T12:31:26.934Z,23.37
2023-04-22T12:33:54.268Z,23.35
2023-04-22T12:36:22.048Z,23.23
2023-04-22T12:38:49.803Z,23.11
2023-04-22T12:41:17.120Z,23.12
2023-04-22T12:43:44.411Z,23.19
2023-04-22T12:46:11.466Z,23.19
2023-04-22T12:48:38.542Z,23.21
2023-04-22T12:51:06.993Z,23.53
2023-04-22T12:53:34.495Z,23.54
2023-04-22T12:56:01.685Z,23.44
2023-04-22T12:58:28.798Z,23.38
2023-04-22T13:00:55.792Z,23.19
2023-04-22T13:03:22.993Z,23.08
2023-04-22T13:05:50.413Z,23.16
2023-04-22T13:08:18.021Z,22.83
2023-04-22T13:10:45.036Z,22.87
2023-04-22T13:15:42.018Z,22.96
2023-04-22T13:18:09.094Z,22.95
2023-04-22T13:20:36.229Z,23.09
2023-04-22T13:23:04.726Z,23.32
2023-04-22T13:25:32.090Z,23.26
2023-04-22T13:27:59.079Z,23.13
2023-04-22T13:30:26.247Z,23.18
2023-04-22T13:32:53.442Z,23.07
2023-04-22T13:35:20.856Z,23.14
2023-04-22T13:37:47.866Z,22.92
2023-04-22T13:40:15.273Z,22.77
2023-04-22T13:42:44.381Z,22.98
2023-04-22T13:45:11.528Z,22.98
2023-04-22T13:47:38.527Z,22.71
2023-04-22T13:50:06.586Z,22.62
2023-04-22T13:52:34.015Z,22.50
2023-04-22T13:55:03.134Z,22.57
2023-04-22T13:57:30.635Z,22.55
2023-04-22T13:59:57.715Z,22.48
2023-04-22T14:02:24.799Z,22.42
2023-04-22T14:04:52.148Z,22.34
2023-04-22T14:07:19.173Z,22.35
2023-04-22T14:09:46.223Z,22.40
2023-04-22T14:12:13.788Z,22.37
2023-04-22T14:14:40.828Z,22.43
2023-04-22T14:17:08.247Z,22.38
2023-04-22T14:19:39.107Z,22.45
2023-04-22T14:22:06.700Z,22.35
2023-04-22T14:24:33.929Z,22.31
2023-04-22T14:27:01.870Z,22.19
2023-04-22T14:29:29.937Z,22.16
2023-04-22T14:31:58.438Z,22.31
2023-04-22T14:34:26.950Z,22.26
2023-04-22T14:36:54.256Z,22.35
2023-04-22T14:39:21.573Z,22.36
2023-04-22T14:41:49.263Z,22.30
2023-04-22T14:44:16.652Z,22.30
2023-04-22T14:46:43.857Z,22.28
2023-04-22T14:49:10.857Z,21.83
2023-04-22T14:51:37.890Z,21.85
2023-04-22T14:54:05.539Z,22.21
2023-04-22T14:56:32.544Z,21.69
2023-04-22T14:58:59.666Z,21.71
2023-04-22T15:01:26.710Z,21.54
2023-04-22T15:03:53.878Z,21.64
2023-04-22T15:06:23.050Z,21.83
2023-04-22T15:08:51.825Z,21.67
2023-04-22T15:11:18.990Z,21.61
2023-04-22T15:13:46.117Z,21.71
2023-04-22T15:16:13.558Z,21.75
2023-04-22T15:18:40.928Z,21.65
2023-04-22T15:21:10.554Z,21.81
2023-04-22T15:23:37.753Z,21.77
2023-04-22T15:26:04.889Z,21.79
2023-04-22T15:28:31.912Z,21.77
2023-04-22T15:30:59.092Z,21.84
2023-04-22T15:33:26.153Z,21.89
2023-04-22T15:35:53.281Z,21.89
2023-04-22T15:38:20.300Z,21.80
2023-04-22T15:40:47.322Z,21.74
2023-04-22T15:43:14.306Z,21.70
2023-04-22T15:45:41.398Z,21.70
2023-04-22T15:48:09.620Z,21.73
2023-04-22T15:50:38.773Z,21.56
2023-04-22T15:53:06.873Z,21.41
2023-04-22T15:55:33.858Z,21.48
2023-04-22T15:58:00.834Z,21.37
2023-04-22T16:00:27.956Z,21.40
2023-04-22T16:02:55.676Z,21.52
2023-04-22T16:05:24.940Z,21.47
2023-04-22T16:07:53.348Z,21.38
2023-04-22T16:10:20.873Z,21.48
2023-04-22T16:12:48.012Z,21.36
2023-04-22T16:15:15.108Z,21.35
2023-04-22T16:17:43.155Z,21.38
2023-04-22T16:20:10.754Z,21.35
2023-04-22T16:22:37.789Z,21.27
2023-04-22T16:25:05.733Z,21.15
2023-04-22T16:27:32.900Z,21.03
2023-04-22T16:29:59.928Z,20.99
2023-04-22T16:32:27.059Z,21.01
2023-04-22T16:34:54.048Z,21.13
2023-04-22T16:37:21.083Z,20.90
2023-04-22T16:39:48.128Z,20.80
2023-04-22T16:42:15.224Z,20.72
2023-04-22T16:44:42.224Z,20.73
2023-04-22T16:47:09.269Z,20.68
2023-04-22T16:49:36.281Z,20.59
2023-04-22T16:52:03.604Z,20.62
2023-04-22T16:54:30.563Z,20.51
2023-04-22T16:56:57.777Z,20.61
2023-04-22T16:59:24.934Z,20.54
2023-04-22T17:01:52.267Z,20.49
2023-04-22T17:04:19.520Z,20.35
2023-04-22T17:06:46.661Z,20.31
2023-04-22T17:09:13.676Z,20.30
2023-04-22T17:11:40.676Z,20.42
2023-04-22T17:14:07.981Z,20.25
2023-04-22T17:16:35.082Z,20.12
2023-04-22T17:19:02.121Z,20.15
2023-04-22T17:21:29.389Z,20.17
2023-04-22T17:23:58.644Z,20.09
2023-04-22T17:26:25.965Z,20.02
2023-04-22T17:28:52.969Z,20.07
2023-04-22T17:31:20.461Z,19.88
2023-04-22T17:33:47.973Z,19.72
2023-04-22T17:36:15.055Z,19.83
2023-04-22T17:38:42.070Z,19.70
2023-04-22T17:41:09.131Z,19.60
2023-04-22T17:43:36.299Z,19.43
2023-04-22T17:46:03.390Z,19.34
2023-04-22T17:48:30.388Z,19.26
2023-04-22T17:51:01.397Z,19.14
2023-04-22T17:53:28.428Z,19.01
2023-04-22T17:55:55.496Z,18.93
2023-04-22T17:58:22.592Z,18.90
2023-04-22T18:00:49.606Z,18.72
2023-04-22T18:03:17.591Z,18.56
2023-04-22T18:05:44.765Z,18.48
2023-04-22T18:08:11.899Z,18.43
2023-04-22T18:10:39.480Z,18.57
2023-04-22T18:13:06.930Z,18.51
2023-04-22T18:15:34.010Z,18.48
2023-04-22T18:18:01.399Z,18.49
2023-04-22T18:20:28.558Z,18.36
2023-04-22T18:22:56.535Z,18.32
2023-04-22T18:25:24.311Z,18.22
2023-04-22T18:27:55.045Z,18.11
2023-04-22T18:30:25.436Z,17.94
2023-04-22T18:32:52.688Z,18.08
2023-04-22T18:35:20.253Z,17.99
2023-04-22T18:37:47.452Z,18.01
2023-04-22T18:40:15.059Z,17.90
2023-04-22T18:42:44.847Z,17.99
2023-04-22T18:45:12.249Z,17.95
2023-04-22T18:47:39.351Z,17.96
2023-04-22T18:50:07.208Z,17.76
2023-04-22T18:52:34.665Z,17.62
2023-04-22T18:55:01.687Z,17.60
2023-04-22T18:57:28.880Z,17.52
2023-04-22T18:59:56.190Z,17.45
2023-04-22T19:02:23.331Z,17.47
2023-04-22T19:04:51.366Z,17.39
2023-04-22T19:07:18.377Z,17.27
2023-04-22T19:09:45.531Z,17.06
2023-04-22T19:12:14.809Z,17.15
2023-04-22T19:14:42.447Z,17.12
2023-04-22T19:17:09.944Z,17.07
2023-04-22T19:19:36.933Z,16.91
2023-04-22T19:22:03.955Z,16.99
2023-04-22T19:24:33.623Z,16.93
2023-04-22T19:27:06.959Z,16.82
2023-04-22T19:29:34.099Z,16.95
2023-04-22T19:32:01.876Z,16.89
2023-04-22T19:34:29.134Z,16.71
2023-04-22T19:36:56.306Z,16.70
2023-04-22T19:39:23.665Z,16.53
2023-04-22T19:41:51.742Z,16.46
2023-04-22T19:44:18.959Z,16.33
2023-04-22T19:46:45.988Z,16.23
2023-04-22T19:49:13.494Z,16.38
2023-04-22T19:51:41.880Z,16.13
2023-04-22T19:54:10.933Z,16.08
2023-04-22T19:56:38.676Z,16.10
2023-04-22T19:59:07.055Z,16.00
2023-04-22T20:01:35.150Z,16.11
2023-04-22T20:04:04.239Z,16.14
2023-04-22T20:06:32.705Z,16.04
2023-04-22T20:09:01.623Z,15.96
2023-04-22T20:11:29.577Z,16.07
2023-04-22T20:13:57.036Z,16.00
2023-04-22T20:16:24.420Z,15.93
2023-04-22T20:18:51.592Z,15.75
2023-04-22T20:21:20.039Z,15.76
2023-04-22T20:23:50.308Z,15.55
2023-04-22T20:26:20.904Z,15.49
2023-04-22T20:28:52.225Z,15.59
2023-04-22T20:31:20.761Z,15.58
2023-04-22T20:33:48.591Z,15.45
2023-04-22T20:36:18.230Z,15.27
2023-04-22T20:38:48.904Z,15.28
2023-04-22T20:41:20.199Z,15.24
2023-04-22T20:43:47.341Z,15.16
2023-04-22T20:46:14.507Z,15.09
2023-04-22T20:48:41.637Z,15.19
2023-04-22T20:51:08.886Z,15.11
2023-04-22T20:53:36.259Z,15.15
2023-04-22T20:56:03.697Z,15.12
2023-04-22T20:58:32.480Z,14.96
2023-04-22T21:00:59.680Z,14.94
2023-04-22T21:03:28.070Z,14.85
2023-04-22T21:05:56.842Z,14.78
2023-04-22T21:08:25.532Z,14.80
2023-04-22T21:10:56.000Z,14.79
2023-04-22T21:13:23.861Z,14.65
2023-04-22T21:15:57.783Z,14.54
2023-04-22T21:18:26.586Z,14.62
2023-04-22T21:20:54.989Z,14.59
2023-04-22T21:23:24.612Z,14.56
2023-04-22T21:25:54.829Z,14.48
2023-04-22T21:28:22.965Z,14.46
2023-04-22T21:30:50.636Z,14.35
2023-04-22T21:33:17.642Z,14.38
2023-04-22T21:35:44.785Z,14.50
2023-04-22T21:38:12.014Z,14.38
2023-04-22T21:40:39.038Z,14.36
2023-04-22T21:43:06.129Z,14.40
2023-04-22T21:45:34.540Z,14.41
2023-04-22T21:48:01.641Z,14.40
2023-04-22T21:50:30.445Z,14.33
2023-04-22T21:52:57.961Z,14.39
2023-04-22T21:55:25.011Z,14.39
2023-04-22T21:57:52.174Z,14.23
2023-04-22T22:00:19.419Z,14.24
2023-04-22T22:02:48.417Z,14.08
2023-04-22T22:05:16.122Z,14.19
2023-04-22T22:07:44.830Z,14.04
2023-04-22T22:10:18.219Z,13.90
2023-04-22T22:12:47.001Z,13.98
2023-04-22T22:15:16.149Z,14.19
2023-04-22T22:17:44.764Z,14.01
2023-04-22T22:20:16.816Z,13.98
2023-04-22T22:22:44.551Z,14.03
2023-04-22T22:25:14.904Z,13.98
2023-04-22T22:27:47.217Z,13.92
2023-04-22T22:30:18.982Z,13.89
2023-04-22T22:32:46.406Z,13.91
2023-04-22T22:35:13.884Z,13.92
2023-04-22T22:37:41.119Z,13.92
2023-04-22T22:40:09.081Z,13.91
2023-04-22T22:42:36.307Z,13.97
2023-04-22T22:45:05.124Z,14.02
2023-04-22T22:47:32.639Z,14.00
2023-04-22T22:49:59.888Z,14.02
2023-04-22T22:52:27.515Z,14.03
2023-04-22T22:54:54.576Z,14.07
2023-04-22T22:57:21.627Z,14.05
2023-04-22T22:59:48.679Z,14.16
2023-04-22T23:02:15.822Z,14.23
2023-04-22T23:04:43.386Z,14.12
2023-04-22T23:07:10.727Z,14.13
2023-04-22T23:09:37.718Z,14.12
2023-04-22T23:12:05.491Z,14.18
2023-04-22T23:14:33.421Z,14.07
2023-04-22T23:17:00.616Z,14.01
2023-04-22T23:19:28.623Z,13.99
2023-04-22T23:21:56.510Z,13.98
2023-04-22T23:24:23.852Z,13.98
2023-04-22T23:26:51.299Z,13.94
2023-04-22T23:29:19.580Z,13.93
2023-04-22T23:31:50.414Z,13.89
2023-04-22T23:34:19.027Z,13.90
2023-04-22T23:36:46.212Z,13.89
2023-04-22T23:39:13.377Z,13.99
2023-04-22T23:41:40.381Z,14.06
2023-04-22T23:44:07.335Z,13.89
2023-04-22T23:46:34.512Z,13.83
2023-04-22T23:49:02.043Z,13.71
2023-04-22T23:51:29.797Z,13.76
2023-04-22T23:53:56.844Z,13.69
2023-04-22T23:56:24.282Z,13.66
2023-04-22T23:58:51.646Z,13.73
